createdAt,value
2017-06-28T00:00:25.557Z,0
2017-06-28T00:00:51.663Z,0
2017-06-28T00:01:17.753Z,0
2017-06-28T00:01:43.901Z,0
2017-06-28T00:02:10.036Z,0
2017-06-28T00:02:36.156Z,0
2017-06-28T00:03:02.321Z,0
2017-06-28T00:03:28.424Z,0
2017-06-28T00:03:54.573Z,0
2017-06-28T00:04:20.706Z,0
2017-06-28T00:04:46.846Z,0
2017-06-28T00:05:12.971Z,0
2017-06-28T00:05:39.105Z,0
2017-06-28T00:06:05.198Z,0
2017-06-28T00:06:31.293Z,0
2017-06-28T00:06:57.478Z,0
2017-06-28T00:07:23.629Z,0
2017-06-28T00:07:49.718Z,0
2017-06-28T00:08:15.826Z,0
2017-06-28T00:08:42.025Z,0
2017-06-28T00:09:08.151Z,0
2017-06-28T00:09:34.272Z,0
2017-06-28T00:10:00.436Z,0
2017-06-28T00:10:26.571Z,0
2017-06-28T00:10:52.748Z,0
2017-06-28T00:11:18.836Z,0
2017-06-28T00:11:44.967Z,0
2017-06-28T00:12:11.068Z,0
2017-06-28T00:12:37.159Z,0
2017-06-28T00:13:03.312Z,0
2017-06-28T00:13:29.529Z,0
2017-06-28T00:13:55.618Z,0
2017-06-28T00:14:21.771Z,0
2017-06-28T00:14:47.916Z,0
2017-06-28T00:15:14.078Z,0
2017-06-28T00:15:40.180Z,0
2017-06-28T00:16:06.271Z,0
2017-06-28T00:16:32.421Z,0
2017-06-28T00:16:58.554Z,0
2017-06-28T00:17:24.667Z,0
2017-06-28T00:17:50.815Z,0
2017-06-28T00:18:16.949Z,0
2017-06-28T00:18:43.065Z,0
2017-06-28T00:19:09.164Z,0
2017-06-28T00:19:35.325Z,0
2017-06-28T00:20:01.442Z,0
2017-06-28T00:20:27.534Z,0
2017-06-28T00:20:53.642Z,0
2017-06-28T00:21:19.740Z,0
2017-06-28T00:21:45.827Z,0
2017-06-28T00:22:11.986Z,0
2017-06-28T00:22:38.079Z,0
2017-06-28T00:23:04.169Z,0
2017-06-28T00:23:30.275Z,0
2017-06-28T00:23:56.380Z,0
2017-06-28T00:24:22.491Z,0
2017-06-28T00:24:48.641Z,0
2017-06-28T00:25:14.748Z,0
2017-06-28T00:25:40.837Z,0
2017-06-28T00:26:06.940Z,0
2017-06-28T00:26:33.057Z,0
2017-06-28T00:26:59.162Z,0
2017-06-28T00:27:25.294Z,0
2017-06-28T00:27:51.404Z,0
2017-06-28T00:28:17.534Z,0
2017-06-28T00:28:43.666Z,0
2017-06-28T00:29:09.755Z,0
2017-06-28T00:29:35.900Z,0
2017-06-28T00:30:02.009Z,0
2017-06-28T00:30:28.150Z,0
2017-06-28T00:30:54.315Z,0
2017-06-28T00:31:20.474Z,0
2017-06-28T00:31:46.573Z,0
2017-06-28T00:32:12.677Z,0
2017-06-28T00:32:38.768Z,0
2017-06-28T00:33:04.938Z,0
2017-06-28T00:33:31.070Z,0
2017-06-28T00:33:57.164Z,0
2017-06-28T00:34:23.325Z,0
2017-06-28T00:34:49.515Z,0
2017-06-28T00:35:15.610Z,0
2017-06-28T00:35:41.728Z,0
2017-06-28T00:36:07.832Z,0
2017-06-28T00:36:33.934Z,0
2017-06-28T00:37:00.032Z,0
2017-06-28T00:37:26.127Z,0
2017-06-28T00:37:52.242Z,0
2017-06-28T00:38:18.379Z,0
2017-06-28T00:38:44.531Z,0
2017-06-28T00:39:10.646Z,0
2017-06-28T00:39:36.778Z,0
2017-06-28T00:40:02.988Z,0
2017-06-28T00:40:29.105Z,0
2017-06-28T00:40:55.230Z,0
2017-06-28T00:41:21.333Z,0
2017-06-28T00:41:47.446Z,0
2017-06-28T00:42:13.546Z,0
2017-06-28T00:42:39.642Z,0
2017-06-28T00:43:05.800Z,0
2017-06-28T00:43:31.926Z,0
2017-06-28T00:43:58.065Z,0
2017-06-28T00:44:24.252Z,0
2017-06-28T00:44:50.410Z,0
2017-06-28T00:45:16.499Z,0
2017-06-28T00:45:42.676Z,0
2017-06-28T00:46:08.810Z,0
2017-06-28T00:46:34.899Z,0
2017-06-28T00:47:00.997Z,0
2017-06-28T00:47:27.158Z,0
2017-06-28T00:47:53.303Z,0
2017-06-28T00:48:19.459Z,0
2017-06-28T00:48:45.625Z,0
2017-06-28T00:49:11.774Z,0
2017-06-28T00:49:37.903Z,0
2017-06-28T00:50:04.021Z,0
2017-06-28T00:50:30.141Z,0
2017-06-28T00:50:56.249Z,0
2017-06-28T00:51:22.397Z,0
2017-06-28T00:51:48.489Z,0
2017-06-28T00:52:14.658Z,0
2017-06-28T00:52:40.750Z,0
2017-06-28T00:53:06.864Z,0
2017-06-28T00:53:33.023Z,0
2017-06-28T00:53:59.118Z,0
2017-06-28T00:54:25.221Z,0
2017-06-28T00:54:51.343Z,0
2017-06-28T00:55:17.506Z,0
2017-06-28T00:55:43.671Z,0
2017-06-28T00:56:09.821Z,0
2017-06-28T00:56:35.936Z,0
2017-06-28T00:57:02.122Z,0
2017-06-28T00:57:28.277Z,0
2017-06-28T00:57:54.440Z,0
2017-06-28T00:58:20.594Z,0
2017-06-28T00:58:46.728Z,0
2017-06-28T00:59:12.896Z,0
2017-06-28T00:59:39.044Z,0
2017-06-28T01:00:05.159Z,0
2017-06-28T01:00:31.265Z,0
2017-06-28T01:00:57.393Z,0
2017-06-28T01:01:23.486Z,0
2017-06-28T01:01:49.609Z,0
2017-06-28T01:02:15.740Z,0
2017-06-28T01:02:41.828Z,0
2017-06-28T01:03:07.952Z,0
2017-06-28T01:03:34.085Z,0
2017-06-28T01:04:00.176Z,0
2017-06-28T01:04:26.274Z,0
2017-06-28T01:04:52.405Z,0
2017-06-28T01:05:18.525Z,0
2017-06-28T01:05:44.616Z,0
2017-06-28T01:06:10.754Z,0
2017-06-28T01:06:36.900Z,0
2017-06-28T01:07:03.015Z,0
2017-06-28T01:07:29.122Z,0
2017-06-28T01:07:55.306Z,0
2017-06-28T01:08:21.444Z,0
2017-06-28T01:08:47.572Z,0
2017-06-28T01:09:13.733Z,0
2017-06-28T01:09:39.844Z,0
2017-06-28T01:10:05.968Z,0
2017-06-28T01:10:32.090Z,0
2017-06-28T01:10:58.252Z,0
2017-06-28T01:11:24.351Z,0
2017-06-28T01:11:50.495Z,0
2017-06-28T01:12:16.596Z,0
2017-06-28T01:12:42.756Z,0
2017-06-28T01:13:08.869Z,0
2017-06-28T01:13:34.968Z,0
2017-06-28T01:14:01.157Z,0
2017-06-28T01:14:27.325Z,0
2017-06-28T01:14:53.493Z,0
2017-06-28T01:15:19.599Z,0
2017-06-28T01:15:45.722Z,0
2017-06-28T01:16:11.856Z,0
2017-06-28T01:16:37.942Z,0
2017-06-28T01:17:04.041Z,0
2017-06-28T01:17:30.175Z,0
2017-06-28T01:17:56.266Z,0
2017-06-28T01:18:22.363Z,0
2017-06-28T01:18:48.469Z,0
2017-06-28T01:19:14.563Z,0
2017-06-28T01:19:40.652Z,0
2017-06-28T01:20:06.762Z,0
2017-06-28T01:20:32.859Z,0
2017-06-28T01:20:58.949Z,0
2017-06-28T01:21:25.054Z,0
2017-06-28T01:21:51.147Z,0
2017-06-28T01:22:17.281Z,0
2017-06-28T01:22:43.376Z,0
2017-06-28T01:23:09.491Z,0
2017-06-28T01:23:35.602Z,0
2017-06-28T01:24:01.777Z,0
2017-06-28T01:24:27.914Z,0
2017-06-28T01:24:54.075Z,0
2017-06-28T01:25:20.196Z,0
2017-06-28T01:25:46.298Z,0
2017-06-28T01:26:12.427Z,0
2017-06-28T01:26:38.533Z,0
2017-06-28T01:27:04.627Z,0
2017-06-28T01:27:30.752Z,0
2017-06-28T01:27:56.865Z,0
2017-06-28T01:28:23.028Z,0
2017-06-28T01:28:49.208Z,0
2017-06-28T01:29:15.323Z,0
2017-06-28T01:29:41.528Z,0
2017-06-28T01:30:07.635Z,0
2017-06-28T01:30:33.721Z,0
2017-06-28T01:30:59.872Z,0
2017-06-28T01:31:25.979Z,0
2017-06-28T01:31:52.067Z,0
2017-06-28T01:32:18.167Z,0
2017-06-28T01:32:44.289Z,0
2017-06-28T01:33:10.413Z,0
2017-06-28T01:33:36.547Z,0
2017-06-28T01:34:02.662Z,0
2017-06-28T01:34:28.808Z,0
2017-06-28T01:34:54.941Z,0
2017-06-28T01:35:21.032Z,0
2017-06-28T01:35:47.153Z,0
2017-06-28T01:36:13.260Z,0
2017-06-28T01:36:39.380Z,0
2017-06-28T01:37:05.476Z,0
2017-06-28T01:37:31.611Z,0
2017-06-28T01:37:57.730Z,0
2017-06-28T01:38:23.909Z,0
2017-06-28T01:38:50.077Z,0
2017-06-28T01:39:16.173Z,0
2017-06-28T01:39:42.278Z,0
2017-06-28T01:40:08.399Z,0
2017-06-28T01:40:34.515Z,0
2017-06-28T01:41:00.623Z,0
2017-06-28T01:41:26.772Z,0
2017-06-28T01:41:52.888Z,0
2017-06-28T01:42:18.995Z,0
2017-06-28T01:42:45.097Z,0
2017-06-28T01:43:11.210Z,0
2017-06-28T01:43:37.366Z,0
2017-06-28T01:44:03.484Z,0
2017-06-28T01:44:29.618Z,0
2017-06-28T01:44:55.768Z,0
2017-06-28T01:45:21.859Z,0
2017-06-28T01:45:47.990Z,0
2017-06-28T01:46:14.092Z,0
2017-06-28T01:46:40.185Z,0
2017-06-28T01:47:06.289Z,0
2017-06-28T01:47:32.420Z,0
2017-06-28T01:47:58.535Z,0
2017-06-28T01:48:24.680Z,0
2017-06-28T01:48:50.816Z,0
2017-06-28T01:49:16.941Z,0
2017-06-28T01:49:43.150Z,0
2017-06-28T01:50:09.340Z,0
2017-06-28T01:50:35.460Z,0
2017-06-28T01:51:01.575Z,0
2017-06-28T01:51:27.711Z,0
2017-06-28T01:51:53.807Z,0
2017-06-28T01:52:19.922Z,0
2017-06-28T01:52:46.056Z,0
2017-06-28T01:53:12.181Z,0
2017-06-28T01:53:38.300Z,0
2017-06-28T01:54:04.457Z,0
2017-06-28T01:54:30.621Z,0
2017-06-28T01:54:56.790Z,0
2017-06-28T01:55:22.888Z,0
2017-06-28T01:55:49.029Z,0
2017-06-28T01:56:15.162Z,0
2017-06-28T01:56:41.262Z,0
2017-06-28T01:57:07.355Z,0
2017-06-28T01:57:33.482Z,0
2017-06-28T01:57:59.670Z,0
2017-06-28T01:58:25.782Z,0
2017-06-28T01:58:51.904Z,0
2017-06-28T01:59:18.066Z,0
2017-06-28T01:59:44.156Z,0
2017-06-28T02:00:10.252Z,0
2017-06-28T02:00:36.403Z,0
2017-06-28T02:01:02.535Z,0
2017-06-28T02:01:28.642Z,0
2017-06-28T02:01:54.727Z,0
2017-06-28T02:02:20.878Z,0
2017-06-28T02:02:47.011Z,0
2017-06-28T02:03:13.150Z,0
2017-06-28T02:03:39.297Z,0
2017-06-28T02:04:05.431Z,0
2017-06-28T02:04:31.658Z,0
2017-06-28T02:04:57.775Z,0
2017-06-28T02:05:23.933Z,0
2017-06-28T02:05:50.058Z,0
2017-06-28T02:06:16.188Z,0
2017-06-28T02:06:42.305Z,0
2017-06-28T02:07:08.427Z,0
2017-06-28T02:07:34.533Z,0
2017-06-28T02:08:00.654Z,0
2017-06-28T02:08:26.795Z,0
2017-06-28T02:08:52.958Z,0
2017-06-28T02:09:19.111Z,0
2017-06-28T02:09:45.575Z,0
2017-06-28T02:10:11.681Z,0
2017-06-28T02:10:37.808Z,0
2017-06-28T02:11:03.922Z,0
2017-06-28T02:11:30.051Z,0
2017-06-28T02:11:56.169Z,0
2017-06-28T02:12:22.307Z,0
2017-06-28T02:12:48.484Z,0
2017-06-28T02:13:14.575Z,0
2017-06-28T02:13:40.682Z,0
2017-06-28T02:14:06.810Z,0
2017-06-28T02:14:32.951Z,0
2017-06-28T02:14:59.053Z,0
2017-06-28T02:15:25.188Z,0
2017-06-28T02:15:51.274Z,0
2017-06-28T02:16:17.372Z,0
2017-06-28T02:16:43.479Z,0
2017-06-28T02:17:09.597Z,0
2017-06-28T02:17:35.757Z,0
2017-06-28T02:18:01.897Z,0
2017-06-28T02:18:28.024Z,0
2017-06-28T02:18:54.182Z,0
2017-06-28T02:19:20.319Z,0
2017-06-28T02:19:46.468Z,0
2017-06-28T02:20:12.602Z,0
2017-06-28T02:20:38.694Z,0
2017-06-28T02:21:04.838Z,0
2017-06-28T02:21:30.945Z,0
2017-06-28T02:21:57.091Z,0
2017-06-28T02:22:23.183Z,0
2017-06-28T02:22:49.312Z,0
2017-06-28T02:23:15.411Z,0
2017-06-28T02:23:41.573Z,0
2017-06-28T02:24:07.717Z,0
2017-06-28T02:24:33.861Z,0
2017-06-28T02:24:59.968Z,0
2017-06-28T02:25:26.063Z,0
2017-06-28T02:25:52.175Z,0
2017-06-28T02:26:18.311Z,0
2017-06-28T02:26:44.408Z,0
2017-06-28T02:27:10.523Z,0
2017-06-28T02:27:36.653Z,0
2017-06-28T02:28:02.754Z,0
2017-06-28T02:28:28.879Z,4
2017-06-28T02:28:54.973Z,4
2017-06-28T02:29:21.112Z,4
2017-06-28T02:29:47.219Z,4
2017-06-28T02:30:13.315Z,4
2017-06-28T02:30:39.457Z,4
2017-06-28T02:31:05.561Z,4
2017-06-28T02:31:31.661Z,4
2017-06-28T02:31:57.749Z,4
2017-06-28T02:32:23.929Z,4
2017-06-28T02:32:50.062Z,4
2017-06-28T02:33:16.199Z,0
2017-06-28T02:33:42.376Z,0
2017-06-28T02:34:08.511Z,4
2017-06-28T02:34:34.602Z,4
2017-06-28T02:35:00.722Z,4
2017-06-28T02:35:26.885Z,4
2017-06-28T02:35:53.003Z,4
2017-06-28T02:36:19.120Z,4
2017-06-28T02:36:45.258Z,4
2017-06-28T02:37:11.462Z,4
2017-06-28T02:37:37.628Z,8
2017-06-28T02:38:03.762Z,8
2017-06-28T02:38:29.861Z,8
2017-06-28T02:38:56.002Z,4
2017-06-28T02:39:22.126Z,4
2017-06-28T02:39:48.240Z,8
2017-06-28T02:40:14.402Z,8
2017-06-28T02:40:40.498Z,8
2017-06-28T02:41:06.615Z,12
2017-06-28T02:41:32.723Z,8
2017-06-28T02:41:58.823Z,8
2017-06-28T02:42:24.910Z,8
2017-06-28T02:42:51.014Z,12
2017-06-28T02:43:17.146Z,12
2017-06-28T02:43:43.232Z,12
2017-06-28T02:44:09.335Z,12
2017-06-28T02:44:35.495Z,16
2017-06-28T02:45:01.589Z,12
2017-06-28T02:45:27.717Z,16
2017-06-28T02:45:53.834Z,16
2017-06-28T02:46:19.936Z,16
2017-06-28T02:46:46.069Z,16
2017-06-28T02:47:12.181Z,20
2017-06-28T02:47:38.283Z,20
2017-06-28T02:48:04.417Z,20
2017-06-28T02:48:30.564Z,20
2017-06-28T02:48:56.733Z,24
2017-06-28T02:49:22.895Z,24
2017-06-28T02:49:49.094Z,24
2017-06-28T02:50:15.184Z,24
2017-06-28T02:50:41.288Z,28
2017-06-28T02:51:07.416Z,28
2017-06-28T02:51:33.576Z,32
2017-06-28T02:51:59.666Z,32
2017-06-28T02:52:25.785Z,32
2017-06-28T02:52:51.919Z,36
2017-06-28T02:53:18.040Z,36
2017-06-28T02:53:44.205Z,40
2017-06-28T02:54:10.339Z,40
2017-06-28T02:54:36.462Z,44
2017-06-28T02:55:02.576Z,44
2017-06-28T02:55:28.682Z,44
2017-06-28T02:55:54.781Z,48
2017-06-28T02:56:20.905Z,48
2017-06-28T02:56:46.995Z,52
2017-06-28T02:57:13.112Z,52
2017-06-28T02:57:39.223Z,52
2017-06-28T02:58:05.374Z,60
2017-06-28T02:58:31.491Z,60
2017-06-28T02:58:57.653Z,60
2017-06-28T02:59:23.807Z,60
2017-06-28T02:59:49.973Z,68
2017-06-28T03:00:16.123Z,68
2017-06-28T03:00:42.230Z,68
2017-06-28T03:01:08.367Z,76
2017-06-28T03:01:34.467Z,76
2017-06-28T03:02:00.562Z,76
2017-06-28T03:02:26.693Z,80
2017-06-28T03:02:52.849Z,80
2017-06-28T03:03:19.015Z,84
2017-06-28T03:03:45.169Z,88
2017-06-28T03:04:11.302Z,92
2017-06-28T03:04:37.439Z,96
2017-06-28T03:05:03.535Z,100
2017-06-28T03:05:29.698Z,104
2017-06-28T03:05:55.845Z,104
2017-06-28T03:06:21.962Z,108
2017-06-28T03:06:48.099Z,108
2017-06-28T03:07:14.215Z,116
2017-06-28T03:07:40.348Z,116
2017-06-28T03:08:06.485Z,120
2017-06-28T03:08:32.583Z,120
2017-06-28T03:08:58.719Z,120
2017-06-28T03:09:24.811Z,120
2017-06-28T03:09:50.907Z,124
2017-06-28T03:10:17.013Z,124
2017-06-28T03:10:43.105Z,124
2017-06-28T03:11:09.193Z,128
2017-06-28T03:11:35.303Z,128
2017-06-28T03:12:01.400Z,132
2017-06-28T03:12:27.516Z,136
2017-06-28T03:12:53.623Z,140
2017-06-28T03:13:19.815Z,144
2017-06-28T03:13:45.949Z,152
2017-06-28T03:14:12.157Z,152
2017-06-28T03:14:38.340Z,156
2017-06-28T03:15:04.477Z,160
2017-06-28T03:15:30.572Z,160
2017-06-28T03:15:56.688Z,164
2017-06-28T03:16:22.821Z,164
2017-06-28T03:16:48.921Z,168
2017-06-28T03:17:15.013Z,172
2017-06-28T03:17:41.139Z,176
2017-06-28T03:18:07.302Z,180
2017-06-28T03:18:33.439Z,184
2017-06-28T03:18:59.562Z,192
2017-06-28T03:19:25.752Z,200
2017-06-28T03:19:51.865Z,208
2017-06-28T03:20:17.964Z,220
2017-06-28T03:20:44.098Z,228
2017-06-28T03:21:10.220Z,240
2017-06-28T03:21:36.313Z,252
2017-06-28T03:22:02.419Z,260
2017-06-28T03:22:28.516Z,268
2017-06-28T03:22:54.607Z,276
2017-06-28T03:23:20.762Z,284
2017-06-28T03:23:46.888Z,296
2017-06-28T03:24:13.014Z,300
2017-06-28T03:24:39.108Z,304
2017-06-28T03:25:05.223Z,308
2017-06-28T03:25:31.355Z,316
2017-06-28T03:25:57.452Z,324
2017-06-28T03:26:23.540Z,332
2017-06-28T03:26:49.676Z,340
2017-06-28T03:27:15.772Z,348
2017-06-28T03:27:41.888Z,360
2017-06-28T03:28:08.093Z,372
2017-06-28T03:28:34.224Z,384
2017-06-28T03:29:00.359Z,392
2017-06-28T03:29:26.489Z,404
2017-06-28T03:29:52.662Z,416
2017-06-28T03:30:18.795Z,428
2017-06-28T03:30:44.921Z,440
2017-06-28T03:31:11.011Z,444
2017-06-28T03:31:37.113Z,452
2017-06-28T03:32:03.247Z,452
2017-06-28T03:32:29.358Z,456
2017-06-28T03:32:55.483Z,460
2017-06-28T03:33:21.591Z,460
2017-06-28T03:33:47.762Z,456
2017-06-28T03:34:13.910Z,460
2017-06-28T03:34:40.071Z,456
2017-06-28T03:35:06.164Z,456
2017-06-28T03:35:32.271Z,456
2017-06-28T03:35:58.380Z,464
2017-06-28T03:36:24.480Z,476
2017-06-28T03:36:50.613Z,488
2017-06-28T03:37:16.728Z,512
2017-06-28T03:37:42.825Z,536
2017-06-28T03:38:08.986Z,560
2017-06-28T03:38:35.131Z,584
2017-06-28T03:39:01.221Z,608
2017-06-28T03:39:27.331Z,628
2017-06-28T03:39:53.453Z,640
2017-06-28T03:40:19.568Z,644
2017-06-28T03:40:45.999Z,644
2017-06-28T03:41:12.119Z,632
2017-06-28T03:41:38.226Z,624
2017-06-28T03:42:04.376Z,600
2017-06-28T03:42:30.467Z,572
2017-06-28T03:42:56.575Z,552
2017-06-28T03:43:22.673Z,532
2017-06-28T03:43:48.763Z,516
2017-06-28T03:44:14.926Z,500
2017-06-28T03:44:41.026Z,488
2017-06-28T03:45:07.192Z,476
2017-06-28T03:45:33.294Z,460
2017-06-28T03:45:59.453Z,440
2017-06-28T03:46:25.546Z,412
2017-06-28T03:46:51.644Z,388
2017-06-28T03:47:17.761Z,368
2017-06-28T03:47:43.921Z,352
2017-06-28T03:48:10.074Z,340
2017-06-28T03:48:36.188Z,340
2017-06-28T03:49:02.340Z,340
2017-06-28T03:49:28.557Z,352
2017-06-28T03:49:54.697Z,372
2017-06-28T03:50:20.823Z,388
2017-06-28T03:50:46.957Z,408
2017-06-28T03:51:13.046Z,408
2017-06-28T03:51:39.141Z,404
2017-06-28T03:52:05.267Z,400
2017-06-28T03:52:31.417Z,400
2017-06-28T03:52:57.522Z,408
2017-06-28T03:53:23.639Z,420
2017-06-28T03:53:49.792Z,440
2017-06-28T03:54:15.933Z,464
2017-06-28T03:54:42.098Z,500
2017-06-28T03:55:08.220Z,544
2017-06-28T03:55:34.326Z,580
2017-06-28T03:56:00.448Z,612
2017-06-28T03:56:26.564Z,636
2017-06-28T03:56:52.698Z,640
2017-06-28T03:57:18.848Z,628
2017-06-28T03:57:45.025Z,608
2017-06-28T03:58:11.139Z,592
2017-06-28T03:58:37.284Z,572
2017-06-28T03:59:03.421Z,556
2017-06-28T03:59:29.594Z,536
2017-06-28T03:59:55.685Z,524
2017-06-28T04:00:21.822Z,508
2017-06-28T04:00:47.919Z,496
2017-06-28T04:01:14.009Z,492
2017-06-28T04:01:40.117Z,496
2017-06-28T04:02:06.245Z,508
2017-06-28T04:02:32.336Z,516
2017-06-28T04:02:58.514Z,532
2017-06-28T04:03:24.727Z,552
2017-06-28T04:03:50.813Z,568
2017-06-28T04:04:16.966Z,576
2017-06-28T04:04:43.129Z,580
2017-06-28T04:05:09.218Z,600
2017-06-28T04:05:35.317Z,620
2017-06-28T04:06:01.422Z,648
2017-06-28T04:06:27.518Z,676
2017-06-28T04:06:53.632Z,704
2017-06-28T04:07:19.741Z,728
2017-06-28T04:07:45.835Z,752
2017-06-28T04:08:11.950Z,768
2017-06-28T04:08:38.087Z,780
2017-06-28T04:09:04.208Z,788
2017-06-28T04:09:30.426Z,796
2017-06-28T04:09:56.520Z,804
2017-06-28T04:10:22.609Z,816
2017-06-28T04:10:48.748Z,832
2017-06-28T04:11:14.868Z,840
2017-06-28T04:11:40.982Z,848
2017-06-28T04:12:07.117Z,856
2017-06-28T04:12:33.218Z,864
2017-06-28T04:12:59.357Z,868
2017-06-28T04:13:25.486Z,868
2017-06-28T04:13:51.650Z,868
2017-06-28T04:14:17.796Z,872
2017-06-28T04:14:43.948Z,872
2017-06-28T04:15:10.038Z,880
2017-06-28T04:15:36.192Z,888
2017-06-28T04:16:02.376Z,904
2017-06-28T04:16:28.466Z,920
2017-06-28T04:16:54.598Z,948
2017-06-28T04:17:20.733Z,976
2017-06-28T04:17:46.845Z,1016
2017-06-28T04:18:12.973Z,1064
2017-06-28T04:18:39.162Z,1124
2017-06-28T04:19:05.254Z,1196
2017-06-28T04:19:31.352Z,1276
2017-06-28T04:19:57.449Z,1368
2017-06-28T04:20:23.554Z,1460
2017-06-28T04:20:49.688Z,1572
2017-06-28T04:21:15.775Z,1684
2017-06-28T04:21:41.900Z,1800
2017-06-28T04:22:08.007Z,1924
2017-06-28T04:22:34.099Z,2056
2017-06-28T04:23:00.198Z,2196
2017-06-28T04:23:26.303Z,2344
2017-06-28T04:23:52.477Z,2492
2017-06-28T04:24:18.620Z,2624
2017-06-28T04:24:44.755Z,2764
2017-06-28T04:25:10.880Z,2900
2017-06-28T04:25:36.982Z,3028
2017-06-28T04:26:03.101Z,3148
2017-06-28T04:26:29.196Z,3268
2017-06-28T04:26:55.329Z,3372
2017-06-28T04:27:21.424Z,3468
2017-06-28T04:27:47.538Z,3564
2017-06-28T04:28:13.705Z,3656
2017-06-28T04:28:39.881Z,3704
2017-06-28T04:29:06.043Z,3736
2017-06-28T04:29:32.235Z,3764
2017-06-28T04:29:58.336Z,3780
2017-06-28T04:30:24.474Z,3788
2017-06-28T04:30:50.606Z,3768
2017-06-28T04:31:16.696Z,3740
2017-06-28T04:31:42.836Z,3712
2017-06-28T04:32:08.983Z,3696
2017-06-28T04:32:35.161Z,3668
2017-06-28T04:33:01.274Z,3628
2017-06-28T04:33:27.375Z,3588
2017-06-28T04:33:53.516Z,3556
2017-06-28T04:34:19.620Z,3524
2017-06-28T04:34:45.756Z,3512
2017-06-28T04:35:11.844Z,3516
2017-06-28T04:35:37.944Z,3524
2017-06-28T04:36:04.052Z,3536
2017-06-28T04:36:30.144Z,3552
2017-06-28T04:36:56.274Z,3568
2017-06-28T04:37:22.390Z,3568
2017-06-28T04:37:48.548Z,3564
2017-06-28T04:38:14.710Z,3564
2017-06-28T04:38:40.848Z,3572
2017-06-28T04:39:06.974Z,3584
2017-06-28T04:39:33.163Z,3592
2017-06-28T04:39:59.311Z,3596
2017-06-28T04:40:25.405Z,3592
2017-06-28T04:40:51.594Z,3584
2017-06-28T04:41:17.716Z,3540
2017-06-28T04:41:43.808Z,3464
2017-06-28T04:42:09.936Z,3364
2017-06-28T04:42:36.116Z,3248
2017-06-28T04:43:02.249Z,3156
2017-06-28T04:43:28.368Z,3100
2017-06-28T04:43:54.465Z,3108
2017-06-28T04:44:20.628Z,3156
2017-06-28T04:44:46.777Z,3232
2017-06-28T04:45:12.893Z,3304
2017-06-28T04:45:39.003Z,3380
2017-06-28T04:46:05.129Z,3484
2017-06-28T04:46:31.244Z,3588
2017-06-28T04:46:57.381Z,3684
2017-06-28T04:47:23.482Z,3776
2017-06-28T04:47:49.597Z,3868
2017-06-28T04:48:15.757Z,3952
2017-06-28T04:48:41.891Z,4024
2017-06-28T04:49:07.983Z,4104
2017-06-28T04:49:34.153Z,4180
2017-06-28T04:50:00.288Z,4240
2017-06-28T04:50:26.378Z,4276
2017-06-28T04:50:52.500Z,4288
2017-06-28T04:51:18.609Z,4280
2017-06-28T04:51:44.702Z,4248
2017-06-28T04:52:10.819Z,4200
2017-06-28T04:52:36.929Z,4136
2017-06-28T04:53:03.078Z,4056
2017-06-28T04:53:29.234Z,3960
2017-06-28T04:53:55.375Z,3856
2017-06-28T04:54:21.494Z,3764
2017-06-28T04:54:47.630Z,3680
2017-06-28T04:55:13.776Z,3624
2017-06-28T04:55:39.867Z,3604
2017-06-28T04:56:06.006Z,3608
2017-06-28T04:56:32.152Z,3632
2017-06-28T04:56:58.243Z,3664
2017-06-28T04:57:24.378Z,3712
2017-06-28T04:57:50.481Z,3776
2017-06-28T04:58:16.569Z,3856
2017-06-28T04:58:42.726Z,3940
2017-06-28T04:59:08.893Z,4028
2017-06-28T04:59:35.049Z,4088
2017-06-28T05:00:01.180Z,4136
2017-06-28T05:00:27.296Z,4144
2017-06-28T05:00:53.456Z,4116
2017-06-28T05:01:19.554Z,4040
2017-06-28T05:01:45.695Z,3940
2017-06-28T05:02:11.797Z,3832
2017-06-28T05:02:37.933Z,3736
2017-06-28T05:03:04.048Z,3680
2017-06-28T05:03:30.146Z,3640
2017-06-28T05:03:56.253Z,3616
2017-06-28T05:04:22.343Z,3596
2017-06-28T05:04:48.497Z,3596
2017-06-28T05:05:14.612Z,3616
2017-06-28T05:05:40.766Z,3624
2017-06-28T05:06:06.902Z,3620
2017-06-28T05:06:32.990Z,3608
2017-06-28T05:06:59.090Z,3568
2017-06-28T05:07:25.251Z,3504
2017-06-28T05:07:51.342Z,3432
2017-06-28T05:08:17.466Z,3352
2017-06-28T05:08:43.656Z,3260
2017-06-28T05:09:09.777Z,3168
2017-06-28T05:09:35.892Z,3084
2017-06-28T05:10:02.031Z,3004
2017-06-28T05:10:28.128Z,2924
2017-06-28T05:10:54.268Z,2856
2017-06-28T05:11:20.375Z,2796
2017-06-28T05:11:46.473Z,2736
2017-06-28T05:12:12.564Z,2668
2017-06-28T05:12:38.670Z,2584
2017-06-28T05:13:04.834Z,2500
2017-06-28T05:13:30.998Z,2416
2017-06-28T05:13:57.148Z,2324
2017-06-28T05:14:23.284Z,2224
2017-06-28T05:14:49.376Z,2124
2017-06-28T05:15:15.523Z,2044
2017-06-28T05:15:41.619Z,1988
2017-06-28T05:16:07.749Z,1972
2017-06-28T05:16:33.856Z,2000
2017-06-28T05:16:59.969Z,2060
2017-06-28T05:17:26.093Z,2148
2017-06-28T05:17:52.226Z,2236
2017-06-28T05:18:18.341Z,2316
2017-06-28T05:18:44.513Z,2392
2017-06-28T05:19:10.714Z,2464
2017-06-28T05:19:36.885Z,2532
2017-06-28T05:20:03.002Z,2596
2017-06-28T05:20:29.167Z,2656
2017-06-28T05:20:55.293Z,2696
2017-06-28T05:21:21.394Z,2728
2017-06-28T05:21:47.509Z,2752
2017-06-28T05:22:13.604Z,2772
2017-06-28T05:22:39.709Z,2788
2017-06-28T05:23:05.802Z,2808
2017-06-28T05:23:31.918Z,2820
2017-06-28T05:23:58.112Z,2844
2017-06-28T05:24:24.233Z,2884
2017-06-28T05:24:50.374Z,2928
2017-06-28T05:25:16.506Z,2952
2017-06-28T05:25:42.665Z,2944
2017-06-28T05:26:08.778Z,2884
2017-06-28T05:26:35.050Z,2764
2017-06-28T05:27:01.154Z,2596
2017-06-28T05:27:27.293Z,2392
2017-06-28T05:27:53.443Z,2164
2017-06-28T05:28:19.604Z,1940
2017-06-28T05:28:45.711Z,1736
2017-06-28T05:29:11.868Z,1564
2017-06-28T05:29:38.013Z,1432
2017-06-28T05:30:04.156Z,1344
2017-06-28T05:30:30.263Z,1300
2017-06-28T05:30:56.376Z,1284
2017-06-28T05:31:22.477Z,1312
2017-06-28T05:31:48.584Z,1376
2017-06-28T05:32:14.699Z,1476
2017-06-28T05:32:40.798Z,1608
2017-06-28T05:33:06.904Z,1772
2017-06-28T05:33:33.079Z,1960
2017-06-28T05:33:59.193Z,2164
2017-06-28T05:34:25.327Z,2376
2017-06-28T05:34:51.453Z,2576
2017-06-28T05:35:17.555Z,2764
2017-06-28T05:35:43.665Z,2924
2017-06-28T05:36:09.761Z,3052
2017-06-28T05:36:35.854Z,3176
2017-06-28T05:37:01.958Z,3300
2017-06-28T05:37:28.092Z,3428
2017-06-28T05:37:54.212Z,3556
2017-06-28T05:38:20.333Z,3692
2017-06-28T05:38:46.473Z,3816
2017-06-28T05:39:12.633Z,3940
2017-06-28T05:39:38.761Z,4044
2017-06-28T05:40:04.902Z,4132
2017-06-28T05:40:31.027Z,4200
2017-06-28T05:40:57.159Z,4252
2017-06-28T05:41:23.271Z,4272
2017-06-28T05:41:49.370Z,4284
2017-06-28T05:42:15.505Z,4280
2017-06-28T05:42:41.598Z,4280
2017-06-28T05:43:07.718Z,4280
2017-06-28T05:43:33.840Z,4260
2017-06-28T05:43:59.970Z,4228
2017-06-28T05:44:26.078Z,4164
2017-06-28T05:44:52.188Z,4080
2017-06-28T05:45:18.362Z,3976
2017-06-28T05:45:44.466Z,3888
2017-06-28T05:46:10.558Z,3812
2017-06-28T05:46:36.656Z,3748
2017-06-28T05:47:02.791Z,3660
2017-06-28T05:47:28.886Z,3524
2017-06-28T05:47:55.002Z,3340
2017-06-28T05:48:21.112Z,3128
2017-06-28T05:48:47.259Z,2912
2017-06-28T05:49:13.410Z,2708
2017-06-28T05:49:39.552Z,2528
2017-06-28T05:50:05.700Z,2388
2017-06-28T05:50:31.805Z,2276
2017-06-28T05:50:57.927Z,2192
2017-06-28T05:51:24.043Z,2128
2017-06-28T05:51:50.178Z,2088
2017-06-28T05:52:16.300Z,2064
2017-06-28T05:52:42.418Z,2060
2017-06-28T05:53:08.550Z,2072
2017-06-28T05:53:34.761Z,2112
2017-06-28T05:54:00.925Z,2168
2017-06-28T05:54:27.082Z,2228
2017-06-28T05:54:53.202Z,2276
2017-06-28T05:55:19.335Z,2312
2017-06-28T05:55:45.513Z,2308
2017-06-28T05:56:11.604Z,2296
2017-06-28T05:56:37.708Z,2288
2017-06-28T05:57:03.836Z,2300
2017-06-28T05:57:29.929Z,2332
2017-06-28T05:57:56.083Z,2384
2017-06-28T05:58:22.189Z,2464
2017-06-28T05:58:48.275Z,2556
2017-06-28T05:59:14.374Z,2660
2017-06-28T05:59:40.507Z,2748
2017-06-28T06:00:06.599Z,2832
2017-06-28T06:00:32.702Z,2916
2017-06-28T06:00:58.817Z,3028
2017-06-28T06:01:24.947Z,3184
2017-06-28T06:01:51.081Z,3356
2017-06-28T06:02:17.195Z,3560
2017-06-28T06:02:43.304Z,3780
2017-06-28T06:03:09.460Z,4016
2017-06-28T06:03:35.605Z,4292
2017-06-28T06:04:01.754Z,4580
2017-06-28T06:04:27.941Z,4884
2017-06-28T06:04:54.035Z,5184
2017-06-28T06:05:20.152Z,5556
2017-06-28T06:05:46.335Z,5956
2017-06-28T06:06:12.455Z,6380
2017-06-28T06:06:38.563Z,6780
2017-06-28T06:07:04.657Z,7228
2017-06-28T06:07:30.780Z,7660
2017-06-28T06:07:56.969Z,8040